Map

Track Data

SID SEASON NUMBER BASIN SUBBASIN NAME ISO_TIME NATURE LAT LON WMO_WIND WMO_PRES WMO_AGENCY TRACK_TYPE DIST2LAND LANDFALL IFLAG USA_AGENCY USA_ATCF_ID USA_LAT USA_LON USA_RECORD USA_STATUS USA_WIND USA_PRES USA_SSHS USA_R34_NE USA_R34_SE USA_R34_SW USA_R34_NW USA_R50_NE USA_R50_SE USA_R50_SW USA_R50_NW USA_R64_NE USA_R64_SE USA_R64_SW USA_R64_NW USA_POCI USA_ROCI USA_RMW USA_EYE TOKYO_LAT TOKYO_LON TOKYO_GRADE TOKYO_WIND TOKYO_PRES TOKYO_R50_DIR TOKYO_R50_LONG TOKYO_R50_SHORT TOKYO_R30_DIR TOKYO_R30_LONG TOKYO_R30_SHORT TOKYO_LAND CMA_LAT CMA_LON CMA_CAT CMA_WIND CMA_PRES HKO_LAT HKO_LON HKO_CAT HKO_WIND HKO_PRES NEWDELHI_LAT NEWDELHI_LON NEWDELHI_GRADE NEWDELHI_WIND NEWDELHI_PRES NEWDELHI_CI NEWDELHI_DP NEWDELHI_POCI REUNION_LAT REUNION_LON REUNION_TYPE REUNION_WIND REUNION_PRES REUNION_TNUM REUNION_CI REUNION_RMW REUNION_R34_NE REUNION_R34_SE REUNION_R34_SW REUNION_R34_NW REUNION_R50_NE REUNION_R50_SE REUNION_R50_SW REUNION_R50_NW REUNION_R64_NE REUNION_R64_SE REUNION_R64_SW REUNION_R64_NW BOM_LAT BOM_LON BOM_TYPE BOM_WIND BOM_PRES BOM_TNUM BOM_CI BOM_RMW BOM_R34_NE BOM_R34_SE BOM_R34_SW BOM_R34_NW BOM_R50_NE BOM_R50_SE BOM_R50_SW BOM_R50_NW BOM_R64_NE BOM_R64_SE BOM_R64_SW BOM_R64_NW BOM_ROCI BOM_POCI BOM_EYE BOM_POS_METHOD BOM_PRES_METHOD NADI_LAT NADI_LON NADI_CAT NADI_WIND NADI_PRES WELLINGTON_LAT WELLINGTON_LON WELLINGTON_WIND WELLINGTON_PRES DS824_LAT DS824_LON DS824_STAGE DS824_WIND DS824_PRES TD9636_LAT TD9636_LON TD9636_STAGE TD9636_WIND TD9636_PRES TD9635_LAT TD9635_LON TD9635_WIND TD9635_PRES TD9635_ROCI NEUMANN_LAT NEUMANN_LON NEUMANN_CLASS NEUMANN_WIND NEUMANN_PRES MLC_LAT MLC_LON MLC_CLASS MLC_WIND MLC_PRES USA_GUST BOM_GUST BOM_GUST_PER REUNION_GUST REUNION_GUST_PER USA_SEAHGT USA_SEARAD_NE USA_SEARAD_SE USA_SEARAD_SW USA_SEARAD_NW STORM_SPEED STORM_DIR
1959215N24089 1959 57 NI BB NOT_NAMED 1959-08-02 18:00:00 TS 23.5000 88.8000 main 0 0 O________O____ jtwc_io IO101959 23.5000 88.8000 -1 23.5000 88.8000 TC 2 270
1959215N24089 1959 57 NI BB NOT_NAMED 1959-08-02 21:00:00 TS 23.5000 88.6675 main 0 0 P________P____ IO101959 23.5000 88.6675 -1 23.5000 88.6675 TC 3 270
1959215N24089 1959 57 NI BB NOT_NAMED 1959-08-03 00:00:00 TS 23.5000 88.5000 main 0 0 O________O____ jtwc_io IO101959 23.5000 88.5000 -1 23.5000 88.5000 TC 25 4 270
1959215N24089 1959 57 NI BB NOT_NAMED 1959-08-03 03:00:00 TS 23.5000 88.2756 main 0 0 P________PO___ IO101959 23.5000 88.2725 -1 23.5000 88.2725 TC 25 23.5000 88.3000 1 5 270
1959215N24089 1959 57 NI BB NOT_NAMED 1959-08-03 06:00:00 TS 23.4989 87.9966 main 0 0 O________OP___ jtwc_io IO101959 23.5000 88.0000 -1 23.5000 88.0000 TC 25 23.4945 87.9828 1 5 270
1959215N24089 1959 57 NI BB NOT_NAMED 1959-08-03 09:00:00 TS 23.4975 87.6979 main 0 0 P________PP___ IO101959 23.5000 87.7075 -1 23.5000 87.7075 TC 25 23.4909 87.6725 1 6 270
1959215N24089 1959 57 NI BB NOT_NAMED 1959-08-03 12:00:00 TS 23.4973 87.3920 main 0 0 O________OP___ jtwc_io IO101959 23.5000 87.4000 -1 23.5000 87.4000 TC 25 23.4918 87.3759 1 6 270
1959215N24089 1959 57 NI BB NOT_NAMED 1959-08-03 15:00:00 TS 23.4950 87.0950 main 0 0 P________PO___ IO101959 23.4925 87.0925 -1 23.4925 87.0925 TC 25 23.5000 87.1000 1 5 271
1959215N24089 1959 57 NI BB NOT_NAMED 1959-08-03 18:00:00 TS 23.5057 86.8154 main 0 0 O________OP___ jtwc_io IO101959 23.5000 86.8000 -1 23.5000 86.8000 TC 25 23.5172 86.8462 1 5 276
1959215N24089 1959 57 NI BB NOT_NAMED 1959-08-03 21:00:00 TS 23.5471 86.5700 main 0 0 P________PP___ IO101959 23.5498 86.5576 -1 23.5498 86.5576 TC 25 23.5415 86.5950 1 5 280
1959215N24089 1959 57 NI BB NOT_NAMED 1959-08-04 00:00:00 TS 23.5901 86.3071 main 0 0 O________OP___ jtwc_io IO101959 23.6000 86.3000 -1 23.6000 86.3000 TC 25 23.5702 86.3212 1 5 276
1959215N24089 1959 57 NI BB NOT_NAMED 1959-08-04 03:00:00 TS 23.5999 85.9866 main 0 0 P________PO___ IO101959 23.5999 85.9799 -1 23.5999 85.9799 TC 25 23.6000 86.0000 1 6 272
1959215N24089 1959 57 NI BB NOT_NAMED 1959-08-04 06:00:00 TS 23.6083 85.6028 main 0 0 O________OP___ jtwc_io IO101959 23.6000 85.6000 -1 23.6000 85.6000 TC 25 23.6250 85.6084 1 7 274
1959215N24089 1959 57 NI BB NOT_NAMED 1959-08-04 09:00:00 TS 23.6499 85.1709 main 0 0 P________PP___ IO101959 23.6499 85.1726 -1 23.6499 85.1726 TC 25 23.6500 85.1674 1 8 276
1959215N24089 1959 57 NI BB NOT_NAMED 1959-08-04 12:00:00 TS 23.6916 84.6976 main 0 0 O________OP___ jtwc_io IO101959 23.7000 84.7000 -1 23.7000 84.7000 TC 25 23.6749 84.6927 1 9 273
1959215N24089 1959 57 NI BB NOT_NAMED 1959-08-04 15:00:00 TS 23.6999 84.2049 main 0 0 P________PO___ IO101959 23.6999 84.2073 -1 23.6999 84.2073 TC 25 23.7000 84.2000 1 9 271
1959215N24089 1959 57 NI BB NOT_NAMED 1959-08-04 18:00:00 TS 23.7044 83.6966 main 0 0 O________OP___ jtwc_io IO101959 23.7000 83.7000 -1 23.7000 83.7000 TC 25 23.7131 83.6897 1 9 272
1959215N24089 1959 57 NI BB NOT_NAMED 1959-08-04 21:00:00 TS 23.7376 83.1849 main 0 0 P________PP___ IO101959 23.7424 83.1926 -1 23.7424 83.1926 TC 25 23.7279 83.1696 1 9 275
1959215N24089 1959 57 NI BB NOT_NAMED 1959-08-05 00:00:00 TS 23.7846 82.6882 main 0 0 O________OP___ jtwc_io IO101959 23.8000 82.7000 -1 23.8000 82.7000 TC 25 23.7537 82.6647 1 9 276
1959215N24089 1959 57 NI BB NOT_NAMED 1959-08-05 03:00:00 TS 23.8283 82.2133 main 0 0 P________PO___ IO101959 23.8425 82.2199 -1 23.8425 82.2199 TC 25 23.8000 82.2000 1 8 278
1959215N24089 1959 57 NI BB NOT_NAMED 1959-08-05 06:00:00 TS 23.8925 81.8050 main 0 0 O________OP___ jtwc_io IO101959 23.9000 81.8000 -1 23.9000 81.8000 TC 25 23.8775 81.8150 1 7 283
1959215N24089 1959 57 NI BB NOT_NAMED 1959-08-05 09:00:00 TS 23.9869 81.4850 main 0 0 P________PP___ IO101959 23.9922 81.4924 -1 23.9922 81.4924 TC 25 23.9763 81.4700 1 6 290
1959215N24089 1959 57 NI BB NOT_NAMED 1959-08-05 12:00:00 TS 24.0957 81.1800 main 0 0 O________OP___ jtwc_io IO101959 24.1000 81.2000 -1 24.1000 81.2000 TC 25 24.0870 81.1400 1 7 289
1959215N24089 1959 57 NI BB NOT_NAMED 1959-08-05 15:00:00 TS 24.2000 80.8100 main 0 0 P________PO___ IO101959 24.2000 80.8150 -1 24.2000 80.8150 TC 25 24.2000 80.8000 1 7 287
1959215N24089 1959 57 NI BB NOT_NAMED 1959-08-05 18:00:00 TS 24.3030 80.4123 main 0 0 O________OP___ jtwc_io IO101959 24.3000 80.4000 -1 24.3000 80.4000 TC 25 24.3075 80.4308 1 8 286
1959215N24089 1959 57 NI BB NOT_NAMED 1959-08-05 21:00:00 TS 24.4039 80.0124 main 0 0 P________PP___ IO101959 24.4001 79.9951 -1 24.4001 79.9951 TC 25 24.4089 80.0354 1 8 285
1959215N24089 1959 57 NI BB NOT_NAMED 1959-08-06 00:00:00 TS 24.5030 79.6111 main 0 0 O________OP___ jtwc_io IO101959 24.5000 79.6000 -1 24.5000 79.6000 TC 25 24.5059 79.6223 1 8 285
1959215N24089 1959 57 NI BB NOT_NAMED 1959-08-06 03:00:00 NR 24.6000 79.2000 main 0 __________O___ IO101959 -1 TC 24.6000 79.2000 1 8 285

About IBTrACS Database

This database is a web-friendly format of International Best Track Archive for Climate Stewardship (IBTrACS), a global best track data archive curated by NOAA dating back to 1842.

Updated: 2021-12-06